Time;durP1;ratioP1;P1;durP2;ratioP2;P2;SDS_P1;SDS_P2;PMS_P1;PMS_P2;Temp;Humidity;BMP_temperature;BMP_pressure;BME280_temperature;BME280_humidity;BME280_pressure;Samples;Min_cycle;Max_cycle;Signal;HPM_P1;HPM_P2
2022/03/30 00:01:19;;;;;;;;;;;;;;;5.91;100.00;100913.31;5096971;28;19916;-77
2022/03/30 00:03:49;;;;;;;;;;;;;;;5.89;100.00;100903.63;5096405;28;20263;-77
2022/03/30 00:06:14;;;;;;;;;;;;;;;5.87;100.00;100908.75;5080039;28;20339;-79
2022/03/30 00:08:42;;;;;;;;;;;;;;;5.85;100.00;100899.03;5115326;28;19923;-80
2022/03/30 00:11:08;;;;;;;;;;;;;;;5.86;100.00;100898.22;5096673;28;20371;-78
2022/03/30 00:13:37;;;;;;;;;;;;;;;5.83;100.00;100893.72;5079834;28;19920;-79
2022/03/30 00:16:06;;;;;;;;;;;;;;;5.81;100.00;100895.34;5114994;28;19939;-78
2022/03/30 00:18:31;;;;;;;;;;;;;;;5.81;100.00;100897.97;5096798;28;20245;-79
2022/03/30 00:20:56;;;;;;;;;;;;;;;5.81;100.00;100897.03;5095963;28;19976;-79
2022/03/30 00:23:22;;;;;;;;;;;;;;;5.78;100.00;100891.66;5114036;28;19916;-78
2022/03/30 00:25:49;;;;;;;;;;;;;;;5.73;100.00;100889.69;5111113;28;20367;-78
2022/03/30 00:28:15;;;;;;;;;;;;;;;5.68;100.00;100891.13;5096815;28;19923;-78
2022/03/30 00:30:41;;;;;;;;;;;;;;;5.64;100.00;100888.25;5096357;28;19974;-78
2022/03/30 00:33:14;;;;;;;;;;;;;;;5.61;100.00;100888.09;5095759;28;20331;-78
2022/03/30 00:35:39;;;;;;;;;;;;;;;5.55;100.00;100899.09;5095686;28;19923;-77
2022/03/30 00:38:05;;;;;;;;;;;;;;;5.48;100.00;100903.06;5114063;28;19920;-78
2022/03/30 00:40:31;;;;;;;;;;;;;;;5.48;100.00;100897.84;5113904;28;20287;-79
2022/03/30 00:42:56;;;;;;;;;;;;;;;5.44;100.00;100895.88;5094452;28;20143;-79
2022/03/30 00:45:23;;;;;;;;;;;;;;;5.40;100.00;100893.88;5079174;28;19945;-79
2022/03/30 00:47:48;;;;;;;;;;;;;;;5.42;100.00;100892.25;5096080;28;20034;-79
2022/03/30 00:50:18;;;;;;;;;;;;;;;5.40;100.00;100897.41;5113813;28;20378;-79
2022/03/30 00:52:44;;;;;;;;;;;;;;;5.37;100.00;100898.94;5096350;28;19916;-79
2022/03/30 00:55:13;;;;;;;;;;;;;;;5.36;100.00;100891.91;5096252;28;19926;-78
2022/03/30 00:57:40;;;;;;;;;;;;;;;5.34;100.00;100894.44;5095294;28;19916;-78
2022/03/30 01:00:08;;;;;;;;;;;;;;;5.30;100.00;100882.03;5113776;28;19947;-77
2022/03/30 01:02:36;;;;;;;;;;;;;;;5.27;100.00;100884.47;5095595;28;19992;-78
2022/03/30 01:05:04;;;;;;;;;;;;;;;5.27;100.00;100878.34;5095870;28;20378;-78
2022/03/30 01:07:30;;;;;;;;;;;;;;;5.28;100.00;100874.91;5078794;28;19927;-77
2022/03/30 01:09:55;;;;;;;;;;;;;;;5.23;100.00;100872.03;5094735;28;19920;-77
2022/03/30 01:12:20;;;;;;;;;;;;;;;5.25;100.00;100869.50;5095820;28;20326;-78
2022/03/30 01:14:50;;;;;;;;;;;;;;;5.19;100.00;100863.13;5094546;28;19950;-78
2022/03/30 01:17:18;;;;;;;;;;;;;;;5.18;100.00;100850.88;5095175;28;19923;-78
2022/03/30 01:19:45;;;;;;;;;;;;;;;5.17;100.00;100850.78;5113219;28;19934;-78
2022/03/30 01:22:11;;;;;;;;;;;;;;;5.14;100.00;100851.53;5093073;28;19920;-77
2022/03/30 01:24:39;;;;;;;;;;;;;;;5.08;100.00;100845.97;5094548;28;19920;-78
2022/03/30 01:27:04;;;;;;;;;;;;;;;5.06;100.00;100846.66;5095137;28;19915;-77
2022/03/30 01:32:29;;;;;;;;;;;;;;;4.94;100.00;100842.53;5113714;28;20406;-77
2022/03/30 01:35:01;;;;;;;;;;;;;;;4.89;100.00;100845.69;5093701;28;20040;-76
2022/03/30 01:37:31;;;;;;;;;;;;;;;4.84;100.00;100842.81;5096176;28;20429;-76
2022/03/30 01:39:57;;;;;;;;;;;;;;;4.80;100.00;100848.63;5095306;28;19938;-76
2022/03/30 01:42:23;;;;;;;;;;;;;;;4.72;100.00;100844.69;5095288;28;19920;-77
2022/03/30 01:44:51;;;;;;;;;;;;;;;4.69;100.00;100840.19;5095235;28;19968;-76
2022/03/30 01:47:16;;;;;;;;;;;;;;;4.61;100.00;100841.44;5110841;28;19961;-76
2022/03/30 01:49:43;;;;;;;;;;;;;;;4.55;100.00;100839.34;5113588;28;19924;-77
2022/03/30 01:52:08;;;;;;;;;;;;;;;4.53;100.00;100847.91;5113257;28;19919;-77
2022/03/30 01:54:38;;;;;;;;;;;;;;;4.46;100.00;100842.31;5113221;28;20080;-77
2022/03/30 01:57:03;;;;;;;;;;;;;;;4.43;100.00;100834.31;5094880;28;19919;-76
2022/03/30 01:59:30;;;;;;;;;;;;;;;4.37;100.00;100831.34;5095037;28;19922;-76
2022/03/30 02:01:55;;;;;;;;;;;;;;;4.30;100.00;100831.75;5078048;28;19928;-76
2022/03/30 02:04:24;;;;;;;;;;;;;;;4.25;100.00;100831.47;5077899;28;20719;-77
2022/03/30 02:06:54;;;;;;;;;;;;;;;4.22;100.00;100828.69;5095078;28;20363;-76
2022/03/30 02:09:20;;;;;;;;;;;;;;;4.18;100.00;100834.53;5093915;28;19927;-77
2022/03/30 02:11:47;;;;;;;;;;;;;;;4.15;100.00;100831.75;5094069;28;20016;-75
2022/03/30 02:14:14;;;;;;;;;;;;;;;4.18;100.00;100838.81;5093802;28;19912;-77
2022/03/30 02:16:39;;;;;;;;;;;;;;;4.11;100.00;100830.63;5110151;28;20269;-76
2022/03/30 02:19:07;;;;;;;;;;;;;;;4.09;100.00;100827.03;5094516;28;20014;-76
2022/03/30 02:21:34;;;;;;;;;;;;;;;4.10;100.00;100822.72;5092694;28;19981;-77
2022/03/30 02:24:01;;;;;;;;;;;;;;;4.09;100.00;100831.38;5074466;28;19928;-77
2022/03/30 02:26:28;;;;;;;;;;;;;;;4.08;100.00;100819.13;5115842;28;19916;-76
2022/03/30 02:28:54;;;;;;;;;;;;;;;4.06;100.00;100815.53;5116527;28;20410;-77
2022/03/30 02:31:22;;;;;;;;;;;;;;;4.02;100.00;100813.53;5098826;28;19916;-77
2022/03/30 02:33:51;;;;;;;;;;;;;;;3.98;100.00;100817.69;5098629;28;19922;-78
2022/03/30 02:36:16;;;;;;;;;;;;;;;3.95;100.00;100818.38;5098217;28;19919;-77
2022/03/30 02:38:42;;;;;;;;;;;;;;;3.91;100.00;100797.25;5098119;28;20395;-77
2022/03/30 02:41:10;;;;;;;;;;;;;;;3.88;100.00;100794.44;5098262;28;20018;-77
2022/03/30 02:43:37;;;;;;;;;;;;;;;3.88;100.00;100792.72;5098228;28;19924;-77
2022/03/30 02:46:03;;;;;;;;;;;;;;;3.85;100.00;100789.03;5097416;28;19916;-77
2022/03/30 02:48:28;;;;;;;;;;;;;;;3.78;100.00;100787.78;5116443;28;19922;-76
2022/03/30 02:50:55;;;;;;;;;;;;;;;3.72;100.00;100792.59;5097650;28;20276;-76
2022/03/30 02:53:20;;;;;;;;;;;;;;;3.68;100.00;100790.59;5097181;28;19919;-77
2022/03/30 02:55:46;;;;;;;;;;;;;;;3.68;100.00;100788.00;5096383;28;20276;-77
2022/03/30 02:58:15;;;;;;;;;;;;;;;3.66;100.00;100781.81;5116132;28;19969;-77
2022/03/30 03:00:42;;;;;;;;;;;;;;;3.69;100.00;100785.50;5098034;28;19961;-77
2022/03/30 03:03:09;;;;;;;;;;;;;;;3.63;100.00;100779.91;5080673;28;19920;-77
2022/03/30 03:05:35;;;;;;;;;;;;;;;3.63;100.00;100782.50;5097770;28;19922;-77
2022/03/30 03:08:01;;;;;;;;;;;;;;;3.63;100.00;100776.41;5097579;28;19992;-76
2022/03/30 03:10:27;;;;;;;;;;;;;;;3.59;100.00;100771.00;5097756;28;20026;-76
2022/03/30 03:12:52;;;;;;;;;;;;;;;3.57;100.00;100780.44;5096998;28;19951;-76
2022/03/30 03:15:19;;;;;;;;;;;;;;;3.52;100.00;100773.13;5114268;28;19916;-77
2022/03/30 03:17:46;;;;;;;;;;;;;;;3.48;100.00;100766.84;5098161;28;19916;-77
2022/03/30 03:20:12;;;;;;;;;;;;;;;3.41;100.00;100769.84;5097660;28;20329;-77
2022/03/30 03:22:38;;;;;;;;;;;;;;;3.37;100.00;100768.75;5115637;28;20060;-77
2022/03/30 03:25:06;;;;;;;;;;;;;;;3.34;100.00;100770.25;5097779;28;19955;-77
2022/03/30 03:27:31;;;;;;;;;;;;;;;3.27;100.00;100773.28;5097670;28;19970;-77
2022/03/30 03:29:57;;;;;;;;;;;;;;;3.26;100.00;100766.25;5096719;28;20609;-79
2022/03/30 03:32:22;;;;;;;;;;;;;;;3.22;100.00;100767.78;5097400;28;20367;-77
2022/03/30 03:34:47;;;;;;;;;;;;;;;3.23;100.00;100762.69;5080183;28;19924;-78
2022/03/30 03:37:13;;;;;;;;;;;;;;;3.22;100.00;100771.28;5096259;28;20279;-78
2022/03/30 03:39:40;;;;;;;;;;;;;;;3.21;100.00;100768.56;5097402;28;19954;-79
2022/03/30 03:42:06;;;;;;;;;;;;;;;3.23;100.00;100769.56;5080507;28;19924;-78
2022/03/30 03:44:34;;;;;;;;;;;;;;;3.27;100.00;100771.56;5097351;28;19923;-79
2022/03/30 03:47:00;;;;;;;;;;;;;;;3.23;100.00;100772.16;5096473;28;19927;-78
2022/03/30 03:49:26;;;;;;;;;;;;;;;3.20;100.00;100770.28;5114919;28;19961;-78
2022/03/30 03:51:52;;;;;;;;;;;;;;;3.24;100.00;100769.66;5097110;28;19911;-78
2022/03/30 03:54:17;;;;;;;;;;;;;;;3.25;100.00;100773.19;5096999;28;19920;-78
2022/03/30 03:56:43;;;;;;;;;;;;;;;3.23;100.00;100767.88;5097004;28;19969;-79
2022/03/30 03:59:09;;;;;;;;;;;;;;;3.26;100.00;100769.75;5096654;28;20619;-79
2022/03/30 04:01:34;;;;;;;;;;;;;;;3.30;100.00;100770.88;5096720;28;19923;-78
2022/03/30 04:04:02;;;;;;;;;;;;;;;3.31;100.00;100765.75;5079129;28;19916;-78
2022/03/30 04:06:29;;;;;;;;;;;;;;;3.30;100.00;100756.16;5096635;28;19916;-78
2022/03/30 04:08:58;;;;;;;;;;;;;;;3.32;100.00;100749.31;5114469;28;19919;-74
2022/03/30 04:11:24;;;;;;;;;;;;;;;3.34;100.00;100750.34;5096549;28;19923;-78
2022/03/30 04:13:55;;;;;;;;;;;;;;;3.33;100.00;100751.13;5079370;28;19924;-78
2022/03/30 04:16:20;;;;;;;;;;;;;;;3.38;100.00;100748.81;5095599;28;20501;-77
2022/03/30 04:18:45;;;;;;;;;;;;;;;3.41;100.00;100751.63;5096319;28;19919;-79
2022/03/30 04:21:10;;;;;;;;;;;;;;;3.38;100.00;100756.63;5079161;28;20341;-78
2022/03/30 04:23:37;;;;;;;;;;;;;;;3.33;100.00;100742.44;5095215;28;19992;-78
2022/03/30 04:26:02;;;;;;;;;;;;;;;3.28;100.00;100738.63;5096233;28;20022;-78
2022/03/30 04:28:30;;;;;;;;;;;;;;;3.24;100.00;100737.53;5095891;28;20003;-78
2022/03/30 04:30:56;;;;;;;;;;;;;;;3.17;100.00;100733.66;5112969;28;20379;-78
2022/03/30 04:33:25;;;;;;;;;;;;;;;3.10;100.00;100738.38;5095827;28;19912;-77
2022/03/30 04:35:51;;;;;;;;;;;;;;;3.00;100.00;100735.19;5095385;28;19920;-77
2022/03/30 04:38:16;;;;;;;;;;;;;;;2.96;100.00;100735.78;5095656;28;19916;-76
2022/03/30 04:40:41;;;;;;;;;;;;;;;2.87;100.00;100723.09;5095633;28;19932;-77
2022/03/30 04:43:09;;;;;;;;;;;;;;;2.85;100.00;100723.78;5078975;28;19920;-77
2022/03/30 04:45:34;;;;;;;;;;;;;;;2.85;100.00;100726.38;5095908;28;19926;-77
2022/03/30 04:48:00;;;;;;;;;;;;;;;2.84;100.00;100725.50;5113127;28;19922;-77
2022/03/30 04:50:26;;;;;;;;;;;;;;;2.80;100.00;100730.41;5079238;28;19927;-76
2022/03/30 04:52:53;;;;;;;;;;;;;;;2.82;100.00;100729.66;5094758;28;19927;-77
2022/03/30 04:55:19;;;;;;;;;;;;;;;2.88;100.00;100734.38;5095747;28;19915;-76
2022/03/30 04:57:45;;;;;;;;;;;;;;;2.83;100.00;100731.47;5095793;28;19927;-76
2022/03/30 05:00:12;;;;;;;;;;;;;;;2.84;100.00;100722.88;5094913;28;19916;-77
2022/03/30 05:02:39;;;;;;;;;;;;;;;2.85;100.00;100723.78;5095127;28;19916;-77
2022/03/30 05:05:08;;;;;;;;;;;;;;;2.80;100.00;100726.09;5112497;28;19969;-77
2022/03/30 05:07:33;;;;;;;;;;;;;;;2.79;100.00;100723.38;5112576;28;19981;-77
2022/03/30 05:09:59;;;;;;;;;;;;;;;2.74;100.00;100722.19;5094683;28;20322;-77
2022/03/30 05:12:24;;;;;;;;;;;;;;;2.69;100.00;100722.78;5095374;28;19938;-77
2022/03/30 05:14:57;;;;;;;;;;;;;;;2.69;100.00;100735.78;5094886;28;19920;-77
2022/03/30 05:17:22;;;;;;;;;;;;;;;2.69;100.00;100727.09;5113691;28;19927;-77
2022/03/30 05:19:48;;;;;;;;;;;;;;;2.70;100.00;100726.25;5093851;28;19924;-77
2022/03/30 05:22:17;;;;;;;;;;;;;;;2.68;100.00;100722.69;5094034;28;19920;-79
2022/03/30 05:24:43;;;;;;;;;;;;;;;2.65;100.00;100725.97;5095221;28;20268;-78
2022/03/30 05:27:11;;;;;;;;;;;;;;;2.66;100.00;100726.88;5113626;28;19923;-79
2022/03/30 05:29:36;;;;;;;;;;;;;;;2.68;100.00;100717.47;5095814;28;19920;-77
2022/03/30 05:32:03;;;;;;;;;;;;;;;2.69;100.00;100722.78;5094808;28;20627;-78
2022/03/30 05:34:31;;;;;;;;;;;;;;;2.70;100.00;100723.66;5113410;28;19915;-78
2022/03/30 05:36:58;;;;;;;;;;;;;;;2.73;100.00;100723.88;5106411;28;19974;-79
2022/03/30 05:39:23;;;;;;;;;;;;;;;2.76;100.00;100718.88;5134444;28;20275;-79
2022/03/30 05:41:50;;;;;;;;;;;;;;;2.82;100.00;100727.06;5115542;28;19928;-78
2022/03/30 05:44:18;;;;;;;;;;;;;;;2.91;100.00;100728.50;5116347;28;19923;-78
2022/03/30 05:46:45;;;;;;;;;;;;;;;3.04;100.00;100721.53;5134615;28;19915;-78
2022/03/30 05:49:11;;;;;;;;;;;;;;;3.24;100.00;100724.53;5131443;28;19915;-77
2022/03/30 05:51:37;;;;;;;;;;;;;;;3.39;100.00;100720.28;5098319;28;20367;-78
2022/03/30 05:54:27;;;;;;;;;;;;;;;3.54;100.00;100715.16;5118018;28;19923;-78
2022/03/30 05:57:00;;;;;;;;;;;;;;;3.65;100.00;100714.88;5132498;28;19919;-78
2022/03/30 05:59:27;;;;;;;;;;;;;;;3.73;100.00;100711.97;5116358;27;19924;-77
2022/03/30 06:01:54;;;;;;;;;;;;;;;3.78;100.00;100699.22;5117928;27;19919;-77
2022/03/30 06:04:21;;;;;;;;;;;;;;;3.91;100.00;100695.63;5102195;27;19927;-77
2022/03/30 06:06:51;;;;;;;;;;;;;;;4.22;100.00;100694.88;5119747;27;20011;-77
2022/03/30 06:09:46;;;;;;;;;;;;;;;4.49;100.00;100698.19;5134556;27;20006;-78
2022/03/30 06:12:29;;;;;;;;;;;;;;;4.92;100.00;100695.41;5116971;27;19919;-77
2022/03/30 06:15:17;;;;;;;;;;;;;;;4.90;100.00;100691.81;5135845;27;19915;-77
2022/03/30 06:17:42;;;;;;;;;;;;;;;5.17;100.00;100696.78;5118232;27;19915;-77
2022/03/30 06:20:16;;;;;;;;;;;;;;;5.17;100.00;100692.47;5134931;27;19915;-77
2022/03/30 06:22:42;;;;;;;;;;;;;;;5.17;100.00;100678.50;5117001;27;19924;-75
2022/03/30 06:25:09;;;;;;;;;;;;;;;5.27;100.00;100683.41;5135957;27;19942;-76
2022/03/30 06:27:37;;;;;;;;;;;;;;;5.52;100.00;100679.53;5118110;27;19915;-77
2022/03/30 06:30:06;;;;;;;;;;;;;;;5.92;100.00;100672.06;5118133;27;20015;-77
2022/03/30 06:32:52;;;;;;;;;;;;;;;5.96;100.00;100673.13;5137099;27;19915;-77
2022/03/30 06:35:23;;;;;;;;;;;;;;;6.00;100.00;100666.38;5123869;27;20408;-77
2022/03/30 06:37:54;;;;;;;;;;;;;;;6.56;100.00;100662.19;5097937;28;19923;-77
2022/03/30 06:40:34;;;;;;;;;;;;;;;6.53;100.00;100659.44;5080455;28;19927;-77
2022/03/30 06:43:01;;;;;;;;;;;;;;;6.47;100.00;100660.03;5111155;28;19922;-77
2022/03/30 06:45:50;;;;;;;;;;;;;;;6.79;100.00;100651.13;5112917;28;20274;-78
2022/03/30 06:48:15;;;;;;;;;;;;;;;7.14;100.00;100640.53;5114863;27;19923;-77
2022/03/30 06:50:46;;;;;;;;;;;;;;;7.41;100.00;100648.75;5118165;27;19962;-77
2022/03/30 06:53:15;;;;;;;;;;;;;;;7.46;100.00;100644.63;5117621;27;19985;-77
2022/03/30 06:55:48;;;;;;;;;;;;;;;7.26;100.00;100637.59;5137226;27;19916;-78
2022/03/30 06:58:23;;;;;;;;;;;;;;;7.14;100.00;100636.16;5136804;27;19969;-77
2022/03/30 07:01:12;;;;;;;;;;;;;;;7.30;100.00;100634.25;5136454;27;19915;-76
2022/03/30 07:03:41;;;;;;;;;;;;;;;6.50;100.00;100625.28;5117337;27;19915;-76
2022/03/30 07:06:26;;;;;;;;;;;;;;;5.79;100.00;100622.59;5097591;27;19920;-76
2022/03/30 07:12:00;;;;;;;;;;;;;;;6.11;100.00;100623.38;5127258;27;20022;-77
2022/03/30 07:14:37;;;;;;;;;;;;;;;6.33;100.00;100621.84;5116358;27;20458;-77
2022/03/30 07:17:04;;;;;;;;;;;;;;;6.70;100.00;100621.00;5134691;27;19981;-76
2022/03/30 07:19:30;;;;;;;;;;;;;;;6.54;100.00;100625.50;5134188;27;20027;-77
2022/03/30 07:21:55;;;;;;;;;;;;;;;7.00;100.00;100621.53;5116054;27;20006;-78
2022/03/30 07:24:21;;;;;;;;;;;;;;;7.48;100.00;100624.59;5135133;27;19919;-77
2022/03/30 07:27:05;;;;;;;;;;;;;;;7.68;100.00;100622.00;5134226;27;19973;-77
2022/03/30 07:29:53;;;;;;;;;;;;;;;7.57;100.00;100623.22;5135866;27;19915;-77
2022/03/30 07:32:42;;;;;;;;;;;;;;;7.71;100.00;100617.78;5134733;27;20291;-77
2022/03/30 07:35:13;;;;;;;;;;;;;;;7.98;100.00;100617.16;5106791;27;19920;-76
2022/03/30 07:37:40;;;;;;;;;;;;;;;8.47;100.00;100613.13;5135322;27;19923;-77
2022/03/30 07:40:08;;;;;;;;;;;;;;;8.91;100.00;100616.59;5126252;27;19930;-77
2022/03/30 07:42:33;;;;;;;;;;;;;;;8.91;100.00;100606.09;5091802;28;19915;-77
2022/03/30 07:44:59;;;;;;;;;;;;;;;8.93;100.00;100616.66;5134066;27;20316;-77
2022/03/30 07:47:29;;;;;;;;;;;;;;;8.82;100.00;100608.34;5117095;27;20009;-77
2022/03/30 07:49:59;;;;;;;;;;;;;;;8.94;100.00;100606.22;5117462;27;20375;-78
2022/03/30 07:52:26;;;;;;;;;;;;;;;8.54;100.00;100606.38;5115278;27;19915;-78
2022/03/30 07:54:54;;;;;;;;;;;;;;;8.76;100.00;100608.13;5113863;27;20268;-78
2022/03/30 07:57:26;;;;;;;;;;;;;;;9.06;100.00;100603.19;5098735;27;20411;-77
2022/03/30 07:59:54;;;;;;;;;;;;;;;8.65;100.00;100601.56;5132799;27;20336;-77
2022/03/30 08:02:19;;;;;;;;;;;;;;;8.80;100.00;100602.16;5094897;27;19976;-77
2022/03/30 08:05:10;;;;;;;;;;;;;;;8.78;100.00;100603.84;5132211;27;20108;-77
2022/03/30 08:07:36;;;;;;;;;;;;;;;8.62;100.00;100597.97;5131169;27;19939;-77
2022/03/30 08:10:07;;;;;;;;;;;;;;;9.04;100.00;100602.19;5113964;28;19916;-78
2022/03/30 08:12:44;;;;;;;;;;;;;;;9.33;100.00;100600.66;5115625;28;19920;-77
2022/03/30 08:15:12;;;;;;;;;;;;;;;9.05;100.00;100608.38;5094799;28;19920;-77
2022/03/30 08:17:38;;;;;;;;;;;;;;;8.63;100.00;100602.38;5095714;28;20365;-77
2022/03/30 08:20:04;;;;;;;;;;;;;;;8.70;100.00;100605.25;5113030;28;19916;-77
2022/03/30 08:22:49;;;;;;;;;;;;;;;8.56;100.00;100596.81;5094737;28;19938;-76
2022/03/30 08:25:14;;;;;;;;;;;;;;;8.98;100.00;100602.88;5088328;28;20321;-79
2022/03/30 08:27:41;;;;;;;;;;;;;;;9.07;100.00;100607.56;5077733;28;19924;-77
2022/03/30 08:30:06;;;;;;;;;;;;;;;8.99;100.00;100598.50;5112185;28;19922;-77
2022/03/30 08:32:32;;;;;;;;;;;;;;;9.55;100.00;100598.81;5113509;28;19915;-77
2022/03/30 08:34:58;;;;;;;;;;;;;;;9.63;100.00;100607.00;5112937;28;19984;-77
2022/03/30 08:37:24;;;;;;;;;;;;;;;8.73;100.00;100601.03;5094000;28;19928;-77
2022/03/30 08:39:51;;;;;;;;;;;;;;;8.67;100.00;100599.88;5096353;28;20001;-76
2022/03/30 08:42:17;;;;;;;;;;;;;;;8.24;100.00;100593.78;5115158;28;20015;-79
2022/03/30 08:44:59;;;;;;;;;;;;;;;8.30;100.00;100594.03;5096777;28;20410;-76
2022/03/30 08:47:26;;;;;;;;;;;;;;;8.67;100.00;100599.88;5115873;28;19951;-76
2022/03/30 08:49:54;;;;;;;;;;;;;;;8.30;100.00;100599.28;5094022;28;19986;-78
2022/03/30 08:52:27;;;;;;;;;;;;;;;8.38;100.00;100589.97;5096124;28;19927;-79
2022/03/30 08:54:54;;;;;;;;;;;;;;;8.43;100.00;100584.91;5078028;28;19972;-78
2022/03/30 08:57:23;;;;;;;;;;;;;;;8.25;100.00;100588.59;5114954;28;20036;-78
2022/03/30 09:00:03;;;;;;;;;;;;;;;8.43;100.00;100590.16;5115098;28;20002;-77
2022/03/30 09:02:38;;;;;;;;;;;;;;;9.02;100.00;100585.50;5118060;28;19920;-79
2022/03/30 09:05:12;;;;;;;;;;;;;;;8.98;100.00;100591.50;5075573;28;19921;-78
2022/03/30 09:07:40;;;;;;;;;;;;;;;9.40;100.00;100574.63;5091126;28;19916;-76
2022/03/30 09:10:14;;;;;;;;;;;;;;;9.82;100.00;100572.63;5104248;28;20437;-76
2022/03/30 09:12:44;;;;;;;;;;;;;;;9.87;100.00;100576.31;5093491;28;19915;-77
2022/03/30 09:15:13;;;;;;;;;;;;;;;9.87;100.00;100578.03;5077181;28;19950;-76
2022/03/30 09:17:43;;;;;;;;;;;;;;;9.26;100.00;100582.00;5094303;28;20122;-78
2022/03/30 09:20:13;;;;;;;;;;;;;;;9.01;100.00;100578.47;5075667;28;19924;-78
2022/03/30 09:22:45;;;;;;;;;;;;;;;9.03;100.00;100582.03;5094007;28;19916;-77
2022/03/30 09:25:11;;;;;;;;;;;;;;;9.22;100.00;100575.72;5111581;28;19915;-76
2022/03/30 09:27:41;;;;;;;;;;;;;;;9.52;100.00;100569.81;5112175;28;19916;-77
2022/03/30 09:30:17;;;;;;;;;;;;;;;9.86;100.00;100574.50;5094717;28;19920;-77
2022/03/30 09:32:47;;;;;;;;;;;;;;;9.94;100.00;100571.25;5094707;28;19970;-79
2022/03/30 09:35:24;;;;;;;;;;;;;;;9.49;100.00;100581.13;5094694;28;19912;-79
2022/03/30 09:38:02;;;;;;;;;;;;;;;9.23;100.00;100572.28;5080849;28;19924;-78
2022/03/30 09:40:40;;;;;;;;;;;;;;;9.03;100.00;100579.41;5115940;28;20342;-79
2022/03/30 09:43:31;;;;;;;;;;;;;;;9.05;100.00;100561.97;5116664;28;19920;-78
2022/03/30 09:46:03;;;;;;;;;;;;;;;9.29;100.00;100571.59;5097742;28;19916;-78
2022/03/30 09:48:49;;;;;;;;;;;;;;;9.15;100.00;100568.47;5115525;28;19961;-79
2022/03/30 09:51:19;;;;;;;;;;;;;;;8.93;100.00;100566.75;5082498;28;19920;-79
2022/03/30 09:53:46;;;;;;;;;;;;;;;9.01;100.00;100553.91;5116193;28;19920;-78
2022/03/30 09:56:16;;;;;;;;;;;;;;;8.98;100.00;100558.22;5115605;28;19955;-78
2022/03/30 09:58:45;;;;;;;;;;;;;;;9.41;100.00;100542.25;5115977;28;20023;-77
2022/03/30 10:01:14;;;;;;;;;;;;;;;9.29;100.00;100554.13;5080528;28;19920;-78
2022/03/30 10:04:04;;;;;;;;;;;;;;;9.42;100.00;100544.03;5098087;28;19916;-77
2022/03/30 10:06:33;;;;;;;;;;;;;;;9.20;100.00;100558.13;5115747;28;19946;-77
2022/03/30 10:08:59;;;;;;;;;;;;;;;9.66;100.00;100542.28;5096399;28;19916;-78
2022/03/30 10:11:27;;;;;;;;;;;;;;;9.90;100.00;100546.59;5114214;28;19926;-78
2022/03/30 10:13:56;;;;;;;;;;;;;;;9.73;100.00;100542.50;5116430;28;19923;-77
2022/03/30 10:16:22;;;;;;;;;;;;;;;10.10;100.00;100546.34;5098379;28;19916;-75
2022/03/30 10:18:49;;;;;;;;;;;;;;;10.77;100.00;100540.63;5097138;28;19923;-75
2022/03/30 10:21:22;;;;;;;;;;;;;;;10.27;100.00;100547.81;5097445;28;19958;-74
2022/03/30 10:23:47;;;;;;;;;;;;;;;10.39;100.00;100556.13;5108998;27;19922;-75
2022/03/30 10:26:18;;;;;;;;;;;;;;;9.92;100.00;100539.63;5122867;27;20406;-75
2022/03/30 10:28:57;;;;;;;;;;;;;;;9.64;100.00;100543.06;5143684;27;20382;-75
2022/03/30 10:31:25;;;;;;;;;;;;;;;9.51;100.00;100542.63;5117291;27;20167;-75
2022/03/30 10:34:18;;;;;;;;;;;;;;;9.36;100.00;100544.72;5116564;27;20358;-75
2022/03/30 10:36:57;;;;;;;;;;;;;;;9.99;100.00;100535.47;5120604;27;19925;-74
2022/03/30 10:39:26;;;;;;;;;;;;;;;9.64;100.00;100543.06;5154744;27;19915;-75
2022/03/30 10:41:52;;;;;;;;;;;;;;;9.79;100.00;100537.41;5120284;28;20358;-76
2022/03/30 10:44:35;;;;;;;;;;;;;;;10.10;100.00;100533.19;5134198;28;19939;-77
2022/03/30 10:47:16;;;;;;;;;;;;;;;9.98;100.00;100533.69;5134134;27;20040;-78
2022/03/30 10:49:44;;;;;;;;;;;;;;;9.74;100.00;100539.00;5116527;28;19916;-76
2022/03/30 10:52:32;;;;;;;;;;;;;;;9.64;100.00;100533.44;5135121;28;19919;-78
2022/03/30 10:55:14;;;;;;;;;;;;;;;9.66;100.00;100536.13;5114912;28;19920;-79
2022/03/30 10:57:49;;;;;;;;;;;;;;;9.53;100.00;100534.81;5095770;28;19915;-79
2022/03/30 11:00:27;;;;;;;;;;;;;;;9.50;100.00;100530.31;5114777;28;19919;-79
2022/03/30 11:03:10;;;;;;;;;;;;;;;9.62;100.00;100524.59;5124692;28;20438;-78
2022/03/30 11:05:42;;;;;;;;;;;;;;;10.04;100.00;100521.63;5135136;28;19947;-79
2022/03/30 11:08:31;;;;;;;;;;;;;;;10.23;100.00;100515.22;5116785;28;20370;-78
2022/03/30 11:11:00;;;;;;;;;;;;;;;10.19;100.00;100513.34;5069588;28;19972;-77
2022/03/30 11:13:26;;;;;;;;;;;;;;;10.11;100.00;100506.03;5114579;28;20014;-77
2022/03/30 11:16:07;;;;;;;;;;;;;;;9.90;100.00;100501.88;5113744;28;20057;-78
2022/03/30 11:18:33;;;;;;;;;;;;;;;9.87;100.00;100491.25;5116662;28;19941;-78
2022/03/30 11:21:20;;;;;;;;;;;;;;;9.92;100.00;100489.66;5118715;27;19997;-77
2022/03/30 11:24:05;;;;;;;;;;;;;;;10.14;100.00;100485.09;5155616;27;19919;-78
2022/03/30 11:26:49;;;;;;;;;;;;;;;10.13;100.00;100476.31;5139594;27;20320;-77
2022/03/30 11:29:33;;;;;;;;;;;;;;;9.88;100.00;100478.16;5116067;28;19915;-76
2022/03/30 11:32:20;;;;;;;;;;;;;;;9.99;100.00;100467.06;5134092;27;19922;-75
2022/03/30 11:34:47;;;;;;;;;;;;;;;9.96;100.00;100461.72;5115913;28;19965;-76
2022/03/30 11:37:12;;;;;;;;;;;;;;;10.13;100.00;100470.16;5039793;27;2106643;-76
2022/03/30 11:39:38;;;;;;;;;;;;;;;10.31;100.00;100472.47;5134260;27;20338;-77
2022/03/30 11:42:04;;;;;;;;;;;;;;;10.41;100.00;100464.94;5116311;27;19916;-77
2022/03/30 11:47:17;;;;;;;;;;;;;;;10.40;100.00;100459.63;5133982;27;20409;-77
2022/03/30 11:49:52;;;;;;;;;;;;;;;10.28;100.00;100464.47;5133877;27;19973;-77
2022/03/30 11:52:18;;;;;;;;;;;;;;;10.46;100.00;100461.56;5099006;27;19919;-77
2022/03/30 11:54:52;;;;;;;;;;;;;;;10.29;100.00;100463.66;5115649;27;19927;-77
2022/03/30 11:57:19;;;;;;;;;;;;;;;10.50;100.00;100455.53;5116354;27;19968;-77
2022/03/30 11:59:55;;;;;;;;;;;;;;;10.46;100.00;100461.56;5098431;27;19919;-77
2022/03/30 12:02:22;;;;;;;;;;;;;;;10.29;100.00;100466.28;5115640;27;20360;-78
2022/03/30 12:04:51;;;;;;;;;;;;;;;10.74;100.00;100458.00;5134581;27;19961;-77
2022/03/30 12:07:19;;;;;;;;;;;;;;;10.74;100.00;100452.72;5115297;27;19927;-77
2022/03/30 12:09:49;;;;;;;;;;;;;;;10.90;100.00;100451.41;5116188;27;19919;-77
2022/03/30 12:12:35;;;;;;;;;;;;;;;10.95;100.00;100453.34;5134282;27;19915;-76
2022/03/30 12:15:06;;;;;;;;;;;;;;;10.72;100.00;100452.69;5115641;27;20340;-78
2022/03/30 12:17:33;;;;;;;;;;;;;;;10.70;100.00;100454.38;5131809;27;19915;-77
2022/03/30 12:20:02;;;;;;;;;;;;;;;10.76;100.00;100446.63;5114979;27;19919;-75
2022/03/30 12:22:28;;;;;;;;;;;;;;;10.51;100.00;100446.78;5115832;27;19955;-76
2022/03/30 12:24:55;;;;;;;;;;;;;;;10.69;100.00;100443.78;5134308;27;19961;-78
2022/03/30 12:27:20;;;;;;;;;;;;;;;10.89;100.00;100436.44;5116722;27;19984;-77
2022/03/30 12:29:47;;;;;;;;;;;;;;;10.57;100.00;100447.84;5134080;27;19919;-75
2022/03/30 12:32:16;;;;;;;;;;;;;;;10.76;100.00;100433.47;5114787;27;19926;-77
2022/03/30 12:34:43;;;;;;;;;;;;;;;11.07;100.00;100436.09;5099424;27;20303;-76
2022/03/30 12:37:22;;;;;;;;;;;;;;;10.72;100.00;100441.25;5116385;27;19923;-77
2022/03/30 12:39:47;;;;;;;;;;;;;;;11.09;100.00;100431.75;5115076;27;20388;-78
2022/03/30 12:42:22;;;;;;;;;;;;;;;11.13;100.00;100428.34;5143423;27;20017;-78
2022/03/30 12:44:48;;;;;;;;;;;;;;;11.61;100.00;100426.94;5136647;27;19963;-77
2022/03/30 12:47:34;;;;;;;;;;;;;;;11.41;100.00;100419.41;5135893;27;20430;-78
2022/03/30 12:50:04;;;;;;;;;;;;;;;11.29;100.00;100425.25;5135096;27;19923;-78
2022/03/30 12:52:35;;;;;;;;;;;;;;;10.82;100.00;100410.81;5155154;27;19919;-77
2022/03/30 12:55:24;;;;;;;;;;;;;;;11.05;100.00;100403.53;5138810;27;19962;-77
2022/03/30 12:57:56;;;;;;;;;;;;;;;10.85;100.00;100400.38;5133861;27;19915;-77